Map

Track Data

SID SEASON NUMBER BASIN SUBBASIN NAME ISO_TIME NATURE LAT LON WMO_WIND WMO_PRES WMO_AGENCY TRACK_TYPE DIST2LAND LANDFALL IFLAG USA_AGENCY USA_ATCF_ID USA_LAT USA_LON USA_RECORD USA_STATUS USA_WIND USA_PRES USA_SSHS USA_R34_NE USA_R34_SE USA_R34_SW USA_R34_NW USA_R50_NE USA_R50_SE USA_R50_SW USA_R50_NW USA_R64_NE USA_R64_SE USA_R64_SW USA_R64_NW USA_POCI USA_ROCI USA_RMW USA_EYE TOKYO_LAT TOKYO_LON TOKYO_GRADE TOKYO_WIND TOKYO_PRES TOKYO_R50_DIR TOKYO_R50_LONG TOKYO_R50_SHORT TOKYO_R30_DIR TOKYO_R30_LONG TOKYO_R30_SHORT TOKYO_LAND CMA_LAT CMA_LON CMA_CAT CMA_WIND CMA_PRES HKO_LAT HKO_LON HKO_CAT HKO_WIND HKO_PRES NEWDELHI_LAT NEWDELHI_LON NEWDELHI_GRADE NEWDELHI_WIND NEWDELHI_PRES NEWDELHI_CI NEWDELHI_DP NEWDELHI_POCI REUNION_LAT REUNION_LON REUNION_TYPE REUNION_WIND REUNION_PRES REUNION_TNUM REUNION_CI REUNION_RMW REUNION_R34_NE REUNION_R34_SE REUNION_R34_SW REUNION_R34_NW REUNION_R50_NE REUNION_R50_SE REUNION_R50_SW REUNION_R50_NW REUNION_R64_NE REUNION_R64_SE REUNION_R64_SW REUNION_R64_NW BOM_LAT BOM_LON BOM_TYPE BOM_WIND BOM_PRES BOM_TNUM BOM_CI BOM_RMW BOM_R34_NE BOM_R34_SE BOM_R34_SW BOM_R34_NW BOM_R50_NE BOM_R50_SE BOM_R50_SW BOM_R50_NW BOM_R64_NE BOM_R64_SE BOM_R64_SW BOM_R64_NW BOM_ROCI BOM_POCI BOM_EYE BOM_POS_METHOD BOM_PRES_METHOD NADI_LAT NADI_LON NADI_CAT NADI_WIND NADI_PRES WELLINGTON_LAT WELLINGTON_LON WELLINGTON_WIND WELLINGTON_PRES DS824_LAT DS824_LON DS824_STAGE DS824_WIND DS824_PRES TD9636_LAT TD9636_LON TD9636_STAGE TD9636_WIND TD9636_PRES TD9635_LAT TD9635_LON TD9635_WIND TD9635_PRES TD9635_ROCI NEUMANN_LAT NEUMANN_LON NEUMANN_CLASS NEUMANN_WIND NEUMANN_PRES MLC_LAT MLC_LON MLC_CLASS MLC_WIND MLC_PRES USA_GUST BOM_GUST BOM_GUST_PER REUNION_GUST REUNION_GUST_PER USA_SEAHGT USA_SEARAD_NE USA_SEARAD_SE USA_SEARAD_SW USA_SEARAD_NW STORM_SPEED STORM_DIR
1916102S08100 1916 14 SI WA NOT_NAMED 1916-04-11 00:00:00 TS -7.50000 100.000 main 464 464 _________O____ -1 -7.50000 100.000 TC 25 5 232
1916102S08100 1916 14 SI WA NOT_NAMED 1916-04-11 03:00:00 TS -7.65752 99.8000 main 496 496 _________P____ -1 -7.65752 99.8000 TC 25 5 233
1916102S08100 1916 14 SI WA NOT_NAMED 1916-04-11 06:00:00 TS -7.80000 99.6000 main 519 519 _________O____ -1 -7.80000 99.6000 TC 25 5 237
1916102S08100 1916 14 SI WA NOT_NAMED 1916-04-11 09:00:00 TS -7.91499 99.4000 main 542 542 _________P____ -1 -7.91499 99.4000 TC 25 4 243
1916102S08100 1916 14 SI WA NOT_NAMED 1916-04-11 12:00:00 TS -8.00000 99.2000 main 564 564 _________O____ -1 -8.00000 99.2000 TC 25 4 250
1916102S08100 1916 14 SI WA NOT_NAMED 1916-04-11 15:00:00 TS -8.05748 99.0075 main 586 586 _________P____ -1 -8.05748 99.0075 TC 25 4 256
1916102S08100 1916 14 SI WA NOT_NAMED 1916-04-11 18:00:00 TS -8.10000 98.8000 main 600 600 _________O____ -1 -8.10000 98.8000 TC 25 4 258
1916102S08100 1916 14 SI WA NOT_NAMED 1916-04-11 21:00:00 TS -8.14997 98.5725 main 615 615 _________P____ -1 -8.14997 98.5725 TC 25 5 259
1916102S08100 1916 14 SI WA NOT_NAMED 1916-04-12 00:00:00 TS -8.20000 98.3000 main 646 646 _________O____ -1 -8.20000 98.3000 TC 25 6 261
1916102S08100 1916 14 SI WA NOT_NAMED 1916-04-12 03:00:00 TS -8.24252 97.9575 main 669 669 _________P____ -1 -8.24252 97.9575 TC 25 7 262
1916102S08100 1916 14 SI WA NOT_NAMED 1916-04-12 06:00:00 TS -8.30000 97.6000 main 708 708 _________O____ -1 -8.30000 97.6000 TC 25 7 257
1916102S08100 1916 14 SI WA NOT_NAMED 1916-04-12 09:00:00 TS -8.39246 97.2925 main 740 740 _________P____ -1 -8.39246 97.2925 TC 25 6 251
1916102S08100 1916 14 SI WA NOT_NAMED 1916-04-12 12:00:00 TS -8.50000 97.0000 main 773 773 _________O____ -1 -8.50000 97.0000 TC 25 6 251
1916102S08100 1916 14 SI WA NOT_NAMED 1916-04-12 15:00:00 TS -8.59248 96.7000 main 805 805 _________P____ -1 -8.59248 96.7000 TC 25 6 251
1916102S08100 1916 14 SI WA NOT_NAMED 1916-04-12 18:00:00 TS -8.70000 96.4000 main 828 828 _________O____ -1 -8.70000 96.4000 TC 25 7 247
1916102S08100 1916 14 SI WA NOT_NAMED 1916-04-12 21:00:00 TS -8.84249 96.0925 main 851 851 _________P____ -1 -8.84249 96.0925 TC 25 7 243
1916102S08100 1916 14 SI WA NOT_NAMED 1916-04-13 00:00:00 TS -9.00000 95.8000 main 885 885 _________O____ -1 -9.00000 95.8000 TC 25 6 240
1916102S08100 1916 14 SI WA NOT_NAMED 1916-04-13 03:00:00 TS -9.14997 95.5425 main 909 909 _________P____ -1 -9.14997 95.5425 TC 25 6 239
1916102S08100 1916 14 SI WA NOT_NAMED 1916-04-13 06:00:00 TS -9.30000 95.3000 main 939 939 _________O____ -1 -9.30000 95.3000 TC 25 6 239
1916102S08100 1916 14 SI WA NOT_NAMED 1916-04-13 09:00:00 TS -9.44248 95.0500 main 959 964 _________P____ -1 -9.44248 95.0500 TC 25 6 239
1916102S08100 1916 14 SI WA NOT_NAMED 1916-04-13 12:00:00 TS -9.60000 94.8000 main 994 994 _________O____ -1 -9.60000 94.8000 TC 25 6 234
1916102S08100 1916 14 SI WA NOT_NAMED 1916-04-13 15:00:00 TS -9.79996 94.5575 main 1024 1024 _________P____ -1 -9.79996 94.5575 TC 25 6 231
1916102S08100 1916 14 SI WA NOT_NAMED 1916-04-13 18:00:00 TS -10.0000 94.3000 main 1060 1060 _________O____ -1 -10.0000 94.3000 TC 25 6 237
1916102S08100 1916 14 SI WA NOT_NAMED 1916-04-13 21:00:00 TS -10.1424 94.0224 main 1086 1086 _________P____ -1 -10.1424 94.0224 TC 25 7 243
1916102S08100 1916 14 SI WA NOT_NAMED 1916-04-14 00:00:00 TS -10.3000 93.7000 main 1122 1122 _________O____ -1 -10.3000 93.7000 TC 25 8 240
1916102S08100 1916 14 SI WA NOT_NAMED 1916-04-14 03:00:00 TS -10.5350 93.3225 main 1164 1164 _________P____ -1 -10.5350 93.3225 TC 25 9 238
1916102S08100 1916 14 SI WA NOT_NAMED 1916-04-14 06:00:00 TS -10.8000 92.9000 main 1216 1216 _________O____ -1 -10.8000 92.9000 TC 25 10 239
1916102S08100 1916 14 SI WA NOT_NAMED 1916-04-14 09:00:00 TS -11.0500 92.4500 main 1265 1265 _________P____ -1 -11.0500 92.4500 TC 25 10 240
1916102S08100 1916 14 SI WA NOT_NAMED 1916-04-14 12:00:00 TS -11.3000 92.0000 main 1318 1318 _________O____ -1 -11.3000 92.0000 TC 25 10 239
1916102S08100 1916 14 SI WA NOT_NAMED 1916-04-14 15:00:00 TS -11.5574 91.5999 main 1371 1371 _________P____ -1 -11.5574 91.5999 TC 25 9 237
1916102S08100 1916 14 SI WA NOT_NAMED 1916-04-14 18:00:00 TS -11.8000 91.2000 main 1415 1415 _________O____ -1 -11.8000 91.2000 TC 25 9 242
1916102S08100 1916 14 SI WA NOT_NAMED 1916-04-14 21:00:00 TS -11.9847 90.7947 main 1459 1459 _________P____ -1 -11.9847 90.7947 TC 25 10 246
1916102S08100 1916 14 SI WA NOT_NAMED 1916-04-15 00:00:00 TS -12.2000 90.3000 main 1511 1511 _________O____ -1 -12.2000 90.3000 TC 25 13 244
1916102S08100 1916 14 SI MM NOT_NAMED 1916-04-15 03:00:00 TS -12.5350 89.6451 main 1586 1586 _________P____ -1 -12.5350 89.6451 TC 25 15 243
1916102S08100 1916 14 SI MM NOT_NAMED 1916-04-15 06:00:00 TS -12.9000 88.9000 main 1670 1670 _________O____ -1 -12.9000 88.9000 TC 25 16 246
1916102S08100 1916 14 SI MM NOT_NAMED 1916-04-15 09:00:00 TS -13.1924 88.1497 main 1753 1753 _________P____ -1 -13.1924 88.1497 TC 25 16 248
1916102S08100 1916 14 SI MM NOT_NAMED 1916-04-15 12:00:00 TS -13.5000 87.4000 main 1830 1830 _________O____ -1 -13.5000 87.4000 TC 25 16 245
1916102S08100 1916 14 SI MM NOT_NAMED 1916-04-15 15:00:00 TS -13.8698 86.6848 main 1915 1915 _________P____ -1 -13.8698 86.6848 TC 25 16 240
1916102S08100 1916 14 SI MM NOT_NAMED 1916-04-15 18:00:00 TS -14.3000 86.0000 main 2001 2001 _________O____ -1 -14.3000 86.0000 TC 25 16 235
1916102S08100 1916 14 SI MM NOT_NAMED 1916-04-15 21:00:00 TS -14.7470 85.3716 main 2078 2078 _________P____ -1 -14.7470 85.3716 TC 25 16 232
1916102S08100 1916 14 SI MM NOT_NAMED 1916-04-16 00:00:00 TS -15.3000 84.7000 main 2179 2179 _________O____ -1 -15.3000 84.7000 TC 25 19 229
1916102S08100 1916 14 SI MM NOT_NAMED 1916-04-16 03:00:00 TS -15.9977 83.8650 main 2295 2295 _________P____ -1 -15.9977 83.8650 TC 25 22 227
1916102S08100 1916 14 SI MM NOT_NAMED 1916-04-16 06:00:00 TS -16.8000 83.0000 main 2427 2427 _________O____ -1 -16.8000 83.0000 TC 25 23 225
1916102S08100 1916 14 SI MM NOT_NAMED 1916-04-16 09:00:00 TS -17.6125 82.1898 main 2550 2493 _________P____ -1 -17.6125 82.1898 TC 25 22 220
1916102S08100 1916 14 SI MM NOT_NAMED 1916-04-16 12:00:00 TS -18.5000 81.5000 main 2491 2426 _________O____ -1 -18.5000 81.5000 TC 25 22 213
1916102S08100 1916 14 SI MM NOT_NAMED 1916-04-16 15:00:00 TS -19.4548 80.9451 main 2414 2374 _________P____ -1 -19.4548 80.9451 TC 25 22 203
1916102S08100 1916 14 SI MM NOT_NAMED 1916-04-16 18:00:00 TS -20.5000 80.6000 main 2374 2359 _________O____ -1 -20.5000 80.6000 TC 25 22 191
1916102S08100 1916 14 SI MM NOT_NAMED 1916-04-16 21:00:00 TS -21.6275 80.4844 main 2359 2359 _________P____ -1 -21.6275 80.4844 TC 25 23 182
1916102S08100 1916 14 SI MM NOT_NAMED 1916-04-17 00:00:00 TS -22.8000 80.5000 main 2361 _________O____ -1 -22.8000 80.5000 TC 25 24 0

About IBTrACS Database

This database is a web-friendly format of International Best Track Archive for Climate Stewardship (IBTrACS), a global best track data archive curated by NOAA dating back to 1842.

Updated: 2021-10-19